United Spirit — ELYB2 — position and weather

sailwx.info

Track history (hours):
 
Tides and Currents Weather Stations Pressure Air Temp Water Temp Dewpoint Dewpoint Depression Visibility Wind Speed Wind Dir Waves Ship Positions

United Spirit

Last reported at 2017-Jan-18 07:33 UTC. Time now 2017-Jan-19 17:07 UTC.
Position N 32°32' W 117°50'.

Type: Cargo ship. MMSI: 636011280.

Date/timePositionNaut miles runAvg speedWind from/ knotsBaromVisibWave heightAir tempDewpointWater temp
2017-Jan-18 07:33N 32°32' W 117°50'1616.4
2017-Jan-18 06:34N 32°48' W 117°53'1717.1
2017-Jan-18 05:34N 33°04' W 118°00'1211.6
2017-Jan-18 04:33N 33°15' W 118°05'1110.8
2017-Jan-18 03:30N 33°26' W 118°09'1110.4
2017-Jan-18 02:28N 33°36' W 118°14'7 8.3
2017-Jan-18 01:33N 33°44' W 118°16'3 2.2
2017-Jan-18 00:22N 33°46' W 118°15'0 0.0
2017-Jan-17 23:31N 33°46' W 118°15'0 0.0
2017-Jan-17 22:31N 33°46' W 118°15'0 0.0
2017-Jan-17 21:28N 33°46' W 118°15'0 0.0
2017-Jan-17 20:31N 33°46' W 118°15'0 0.0
2017-Jan-17 19:28N 33°46' W 118°15'0 0.0
2017-Jan-17 18:22N 33°46' W 118°15'0 0.0
2017-Jan-17 17:16N 33°46' W 118°15'0 0.0
2017-Jan-17 16:31N 33°46' W 118°15'0 0.0
2017-Jan-17 15:28N 33°46' W 118°15'0 0.0
2017-Jan-17 13:10N 33°46' W 118°15'0 0.0
2017-Jan-17 12:25N 33°46' W 118°15'0 0.0
2017-Jan-17 11:19N 33°46' W 118°15'0 0.0
2017-Jan-17 10:28N 33°46' W 118°15'0 0.0
2017-Jan-17 09:28N 33°46' W 118°15'0 0.0
2017-Jan-17 02:11N 33°46' W 118°15'3 4.8
2017-Jan-17 01:34N 33°43' W 118°15'206 6.8
2017-Jan-15 19:17N 35°30' W 121°49'1114.9
2017-Jan-15 18:33N 35°39' W 121°56'1514.7
2017-Jan-15 17:33N 35°51' W 122°07'1514.6
2017-Jan-15 16:33N 36°02' W 122°18'1414.4
2017-Jan-15 15:33N 36°14' W 122°28'1514.5
2017-Jan-15 14:33N 36°27' W 122°36'3114.3
2017-Jan-15 12:24N 36°54' W 122°55'5714.3
2017-Jan-15 08:25N 37°45' W 123°27'1214.2
2017-Jan-15 07:33N 37°57' W 123°30'1414.4
2017-Jan-15 06:34N 38°11' W 123°34'1514.7
2017-Jan-15 05:33N 38°25' W 123°39'1514.5
2017-Jan-15 04:33N 38°39' W 123°45'35316.4
2017-Jan-14 07:05N 44°27' W 125°01'916.9
2017-Jan-14 06:33N 44°36' W 125°02'1717.0
2017-Jan-14 05:33N 44°53' W 125°03'1717.2
2017-Jan-14 04:33N 45°10' W 125°05'1717.5
2017-Jan-14 03:33N 45°28' W 125°06'7017.4
2017-Jan-13 23:33N 46°37' W 125°11'1717.0
2017-Jan-13 22:32N 46°55' W 125°12'2216.7
2017-Jan-13 21:12N 47°17' W 125°14'5916.2
2017-Jan-13 17:32N 48°16' W 125°11'1716.7
2017-Jan-13 16:33N 48°31' W 124°59'1717.1
2017-Jan-13 15:33N 48°28' W 124°34'1717.4
2017-Jan-13 14:33N 48°21' W 124°10'1716.9
2017-Jan-13 13:33N 48°16' W 123°45'1413.7
2017-Jan-13 12:33N 48°21' W 123°26'1111.1
2017-Jan-13 11:33N 48°27' W 123°12'1515.0
2017-Jan-13 10:33N 48°42' W 123°16'1211.9
2017-Jan-13 09:33N 48°50' W 123°02'1616.3
2017-Jan-13 08:33N 49°02' W 123°20'9 9.4
2017-Jan-13 07:33N 49°07' W 123°07'9 8.9
2017-Jan-13 06:33N 49°11' W 122°55'0 0.0
2017-Jan-13 05:33N 49°11' W 122°55'0 0.0
2017-Jan-13 04:33N 49°11' W 122°55'0 0.0
2017-Jan-13 03:33N 49°11' W 122°55'0 0.0
2017-Jan-13 02:33N 49°11' W 122°55'0 0.0
2017-Jan-13 01:33N 49°11' W 122°55'0 0.0
2017-Jan-13 00:33N 49°11' W 122°55'0 0.0
2017-Jan-12 23:33N 49°11' W 122°55'0 0.0
2017-Jan-12 22:33N 49°11' W 122°55'0 0.0
2017-Jan-12 21:33N 49°11' W 122°55'0 0.0
2017-Jan-12 20:33N 49°11' W 122°55'0 0.0
2017-Jan-12 19:33N 49°11' W 122°55'0 0.0
2017-Jan-12 18:33N 49°11' W 122°55'0 0.0
2017-Jan-12 17:33N 49°11' W 122°55'0 0.0
2017-Jan-12 16:33N 49°11' W 122°55'0 0.0
2017-Jan-12 15:33N 49°11' W 122°55'0 0.0
2017-Jan-12 14:33N 49°11' W 122°55'0 0.0
2017-Jan-12 13:33N 49°11' W 122°55'0 0.0
2017-Jan-12 12:33N 49°11' W 122°55'0 0.0
2017-Jan-12 11:33N 49°11' W 122°55'0 0.0
2017-Jan-12 10:33N 49°11' W 122°55'0 0.0
2017-Jan-12 09:33N 49°11' W 122°55'0 0.0
2017-Jan-12 08:31N 49°11' W 122°55'0 0.0
2017-Jan-12 07:31N 49°11' W 122°55'0 0.0
2017-Jan-12 06:31N 49°11' W 122°55'0 0.0
2017-Jan-12 05:31N 49°11' W 122°55'0 0.0
2017-Jan-12 04:31N 49°11' W 122°55'0 0.0
2017-Jan-12 03:31N 49°11' W 122°55'0 0.0
2017-Jan-12 02:31N 49°11' W 122°55'0 0.0
2017-Jan-12 01:31N 49°11' W 122°55'0 0.0
2017-Jan-12 00:31N 49°11' W 122°55'0 0.0
2017-Jan-11 23:31N 49°11' W 122°55'2 1.6
2017-Jan-11 22:33N 49°10' W 122°56'1010.0
2017-Jan-11 21:33N 49°07' W 123°11'8 7.8
2017-Jan-11 20:33N 49°09' W 123°23'10 9.9
2017-Jan-11 19:33N 49°18' W 123°17'3 3.1
2017-Jan-11 18:32N 49°17' W 123°12'0 0.0
2017-Jan-11 17:32N 49°17' W 123°12'0 0.1
2017-Jan-11 16:32N 49°17' W 123°12'0 0.0
2017-Jan-11 15:32N 49°17' W 123°12'0 0.0
2017-Jan-11 14:32N 49°17' W 123°12'0 0.0
2017-Jan-11 13:32N 49°17' W 123°12'0 0.0
2017-Jan-11 12:32N 49°17' W 123°12'0 0.0
2017-Jan-11 11:32N 49°17' W 123°12'0 0.0
2017-Jan-11 10:32N 49°17' W 123°12'0 0.0
2017-Jan-11 09:32N 49°17' W 123°12'0 0.0
2017-Jan-11 08:32N 49°17' W 123°12'0 0.0
2017-Jan-11 07:32N 49°17' W 123°12'0 0.0
2017-Jan-11 06:32N 49°17' W 123°12'0 0.0
2017-Jan-11 05:29N 49°17' W 123°12'0 0.0
2017-Jan-11 04:32N 49°17' W 123°12'0 0.0
2017-Jan-11 03:32N 49°17' W 123°12'0 0.0
2017-Jan-11 02:32N 49°17' W 123°12'0 0.1
2017-Jan-11 01:32N 49°17' W 123°12'0 0.0
2017-Jan-11 00:32N 49°17' W 123°12'0 0.0
2017-Jan-10 23:32N 49°17' W 123°12'0 0.0
2017-Jan-10 22:32N 49°17' W 123°12'0 0.0
2017-Jan-10 21:32N 49°17' W 123°12'0 0.0
2017-Jan-10 20:32N 49°17' W 123°12'0 0.0
2017-Jan-10 19:32N 49°17' W 123°12'0 0.0
2017-Jan-10 18:32N 49°17' W 123°12'0 0.0
2017-Jan-10 17:32N 49°17' W 123°12'0 0.0
2017-Jan-10 16:32N 49°17' W 123°12'0 0.0
2017-Jan-10 15:32N 49°17' W 123°12'0 0.0
2017-Jan-10 14:32N 49°17' W 123°12'0 0.0
2017-Jan-10 13:32N 49°17' W 123°12'0 0.0
2017-Jan-10 12:32N 49°17' W 123°12'0 0.0
2017-Jan-10 11:32N 49°17' W 123°12'0 0.0
2017-Jan-10 10:32N 49°17' W 123°12'0 0.0
2017-Jan-10 09:32N 49°17' W 123°12'0 0.0
2017-Jan-10 08:32N 49°17' W 123°12'0 0.0
2017-Jan-10 07:32N 49°17' W 123°12'0 0.0
2017-Jan-10 06:32N 49°17' W 123°12'0 0.0
2017-Jan-10 05:32N 49°17' W 123°12'0 0.0
2017-Jan-10 04:29N 49°17' W 123°12'0 0.0
2017-Jan-10 03:32N 49°17' W 123°12'0 0.0
2017-Jan-10 02:32N 49°17' W 123°12'0 0.0
2017-Jan-10 01:32N 49°17' W 123°12'0 0.0
2017-Jan-10 00:32N 49°17' W 123°12'0 0.0
2017-Jan-09 23:32N 49°17' W 123°12'0 0.0
2017-Jan-09 22:32N 49°17' W 123°12'0 0.0
2017-Jan-09 21:32N 49°17' W 123°12'0 0.1
2017-Jan-09 20:32N 49°17' W 123°12'0 0.0
2017-Jan-09 19:32N 49°17' W 123°12'0 0.0
2017-Jan-09 18:32N 49°17' W 123°12'0 0.0
2017-Jan-09 17:32N 49°17' W 123°12'0 0.0
2017-Jan-09 16:32N 49°17' W 123°12'0 0.0
2017-Jan-09 15:32N 49°17' W 123°12'0 0.0
2017-Jan-09 14:32N 49°17' W 123°12'0 0.0
2017-Jan-09 13:32N 49°17' W 123°12'0 0.0
2017-Jan-09 12:32N 49°17' W 123°12'0 0.1
2017-Jan-09 11:32N 49°17' W 123°12'0 0.0
2017-Jan-09 10:32N 49°17' W 123°12'0 0.0
2017-Jan-09 09:32N 49°17' W 123°12'0 0.0
2017-Jan-09 08:32N 49°17' W 123°12'0 0.0
2017-Jan-09 07:32N 49°17' W 123°12'0 0.1
2017-Jan-09 06:32N 49°17' W 123°12'0 0.0
2017-Jan-09 05:32N 49°17' W 123°12'0 0.0
2017-Jan-09 04:33N 49°17' W 123°12'0 0.0
2017-Jan-09 03:33N 49°17' W 123°12'0 0.0
2017-Jan-09 02:34N 49°17' W 123°12'0 0.0
2017-Jan-09 01:34N 49°17' W 123°12'0 0.0
2017-Jan-09 00:33N 49°17' W 123°12'0 0.0
2017-Jan-08 23:34N 49°17' W 123°12'0 0.0
2017-Jan-08 22:34N 49°17' W 123°12'0 0.1
2017-Jan-08 21:33N 49°17' W 123°12'4 4.2
2017-Jan-08 20:34N 49°17' W 123°18'1515.3
2017-Jan-08 19:34N 49°01' W 123°16'1717.3
2017-Jan-08 18:33N 48°47' W 123°01'1414.1
2017-Jan-08 17:34N 48°36' W 123°13'1414.0
2017-Jan-08 16:34N 48°22' W 123°17'1010.3
2017-Jan-08 15:33N 48°15' W 123°28'1313.4
2017-Jan-08 14:33N 48°14' W 123°48'1313.0
2017-Jan-08 13:33N 48°17' W 124°07'1312.7
2017-Jan-08 12:33N 48°23' W 124°24'1212.2
2017-Jan-08 11:33N 48°28' W 124°41'1110.9
2017-Jan-08 10:33N 48°29' W 124°57'1110.6
2017-Jan-08 09:33N 48°29' W 125°13'1110.6
2017-Jan-08 08:31N 48°30' W 125°29'1010.9
2017-Jan-08 07:33N 48°32' W 125°45'  
Track history (hours):
 
Tides and Currents Weather Stations Pressure Air Temp Water Temp Dewpoint Dewpoint Depression Visibility Wind Speed Wind Dir Waves Ship Positions

United Spirit

Last reported at 2017-Jan-18 07:33 UTC. Time now 2017-Jan-19 17:07 UTC.
Position N 32°32' W 117°50'.

Type: Cargo ship. MMSI: 636011280.

Date/timePositionNaut miles runAvg speedWind from/ knotsBaromVisibWave heightAir tempDewpointWater temp
2017-Jan-18 07:33N 32°32' W 117°50'1616.4
2017-Jan-18 06:34N 32°48' W 117°53'1717.1
2017-Jan-18 05:34N 33°04' W 118°00'1211.6
2017-Jan-18 04:33N 33°15' W 118°05'1110.8
2017-Jan-18 03:30N 33°26' W 118°09'1110.4
2017-Jan-18 02:28N 33°36' W 118°14'7 8.3
2017-Jan-18 01:33N 33°44' W 118°16'3 2.2
2017-Jan-18 00:22N 33°46' W 118°15'0 0.0
2017-Jan-17 23:31N 33°46' W 118°15'0 0.0
2017-Jan-17 22:31N 33°46' W 118°15'0 0.0
2017-Jan-17 21:28N 33°46' W 118°15'0 0.0
2017-Jan-17 20:31N 33°46' W 118°15'0 0.0
2017-Jan-17 19:28N 33°46' W 118°15'0 0.0
2017-Jan-17 18:22N 33°46' W 118°15'0 0.0
2017-Jan-17 17:16N 33°46' W 118°15'0 0.0
2017-Jan-17 16:31N 33°46' W 118°15'0 0.0
2017-Jan-17 15:28N 33°46' W 118°15'0 0.0
2017-Jan-17 13:10N 33°46' W 118°15'0 0.0
2017-Jan-17 12:25N 33°46' W 118°15'0 0.0
2017-Jan-17 11:19N 33°46' W 118°15'0 0.0
2017-Jan-17 10:28N 33°46' W 118°15'0 0.0
2017-Jan-17 09:28N 33°46' W 118°15'0 0.0
2017-Jan-17 02:11N 33°46' W 118°15'3 4.8
2017-Jan-17 01:34N 33°43' W 118°15'206 6.8
2017-Jan-15 19:17N 35°30' W 121°49'1114.9
2017-Jan-15 18:33N 35°39' W 121°56'1514.7
2017-Jan-15 17:33N 35°51' W 122°07'1514.6
2017-Jan-15 16:33N 36°02' W 122°18'1414.4
2017-Jan-15 15:33N 36°14' W 122°28'1514.5
2017-Jan-15 14:33N 36°27' W 122°36'3114.3
2017-Jan-15 12:24N 36°54' W 122°55'5714.3
2017-Jan-15 08:25N 37°45' W 123°27'1214.2
2017-Jan-15 07:33N 37°57' W 123°30'1414.4
2017-Jan-15 06:34N 38°11' W 123°34'1514.7
2017-Jan-15 05:33N 38°25' W 123°39'1514.5
2017-Jan-15 04:33N 38°39' W 123°45'35316.4
2017-Jan-14 07:05N 44°27' W 125°01'916.9
2017-Jan-14 06:33N 44°36' W 125°02'1717.0
2017-Jan-14 05:33N 44°53' W 125°03'1717.2
2017-Jan-14 04:33N 45°10' W 125°05'1717.5
2017-Jan-14 03:33N 45°28' W 125°06'7017.4
2017-Jan-13 23:33N 46°37' W 125°11'1717.0
2017-Jan-13 22:32N 46°55' W 125°12'2216.7
2017-Jan-13 21:12N 47°17' W 125°14'5916.2
2017-Jan-13 17:32N 48°16' W 125°11'1716.7
2017-Jan-13 16:33N 48°31' W 124°59'1717.1
2017-Jan-13 15:33N 48°28' W 124°34'1717.4
2017-Jan-13 14:33N 48°21' W 124°10'1716.9
2017-Jan-13 13:33N 48°16' W 123°45'1413.7
2017-Jan-13 12:33N 48°21' W 123°26'1111.1
2017-Jan-13 11:33N 48°27' W 123°12'1515.0
2017-Jan-13 10:33N 48°42' W 123°16'1211.9
2017-Jan-13 09:33N 48°50' W 123°02'1616.3
2017-Jan-13 08:33N 49°02' W 123°20'9 9.4
2017-Jan-13 07:33N 49°07' W 123°07'9 8.9
2017-Jan-13 06:33N 49°11' W 122°55'0 0.0
2017-Jan-13 05:33N 49°11' W 122°55'0 0.0
2017-Jan-13 04:33N 49°11' W 122°55'0 0.0
2017-Jan-13 03:33N 49°11' W 122°55'0 0.0
2017-Jan-13 02:33N 49°11' W 122°55'0 0.0
2017-Jan-13 01:33N 49°11' W 122°55'0 0.0
2017-Jan-13 00:33N 49°11' W 122°55'0 0.0
2017-Jan-12 23:33N 49°11' W 122°55'0 0.0
2017-Jan-12 22:33N 49°11' W 122°55'0 0.0
2017-Jan-12 21:33N 49°11' W 122°55'0 0.0
2017-Jan-12 20:33N 49°11' W 122°55'0 0.0
2017-Jan-12 19:33N 49°11' W 122°55'0 0.0
2017-Jan-12 18:33N 49°11' W 122°55'0 0.0
2017-Jan-12 17:33N 49°11' W 122°55'0 0.0
2017-Jan-12 16:33N 49°11' W 122°55'0 0.0
2017-Jan-12 15:33N 49°11' W 122°55'0 0.0
2017-Jan-12 14:33N 49°11' W 122°55'0 0.0
2017-Jan-12 13:33N 49°11' W 122°55'0 0.0
2017-Jan-12 12:33N 49°11' W 122°55'0 0.0
2017-Jan-12 11:33N 49°11' W 122°55'0 0.0
2017-Jan-12 10:33N 49°11' W 122°55'0 0.0
2017-Jan-12 09:33N 49°11' W 122°55'0 0.0
2017-Jan-12 08:31N 49°11' W 122°55'0 0.0
2017-Jan-12 07:31N 49°11' W 122°55'0 0.0
2017-Jan-12 06:31N 49°11' W 122°55'0 0.0
2017-Jan-12 05:31N 49°11' W 122°55'0 0.0
2017-Jan-12 04:31N 49°11' W 122°55'0 0.0
2017-Jan-12 03:31N 49°11' W 122°55'0 0.0
2017-Jan-12 02:31N 49°11' W 122°55'0 0.0
2017-Jan-12 01:31N 49°11' W 122°55'0 0.0
2017-Jan-12 00:31N 49°11' W 122°55'0 0.0
2017-Jan-11 23:31N 49°11' W 122°55'2 1.6
2017-Jan-11 22:33N 49°10' W 122°56'1010.0
2017-Jan-11 21:33N 49°07' W 123°11'8 7.8
2017-Jan-11 20:33N 49°09' W 123°23'10 9.9
2017-Jan-11 19:33N 49°18' W 123°17'3 3.1
2017-Jan-11 18:32N 49°17' W 123°12'0 0.0
2017-Jan-11 17:32N 49°17' W 123°12'0 0.1
2017-Jan-11 16:32N 49°17' W 123°12'0 0.0
2017-Jan-11 15:32N 49°17' W 123°12'0 0.0
2017-Jan-11 14:32N 49°17' W 123°12'0 0.0
2017-Jan-11 13:32N 49°17' W 123°12'0 0.0
2017-Jan-11 12:32N 49°17' W 123°12'0 0.0
2017-Jan-11 11:32N 49°17' W 123°12'0 0.0
2017-Jan-11 10:32N 49°17' W 123°12'0 0.0
2017-Jan-11 09:32N 49°17' W 123°12'0 0.0
2017-Jan-11 08:32N 49°17' W 123°12'0 0.0
2017-Jan-11 07:32N 49°17' W 123°12'0 0.0
2017-Jan-11 06:32N 49°17' W 123°12'0 0.0
2017-Jan-11 05:29N 49°17' W 123°12'0 0.0
2017-Jan-11 04:32N 49°17' W 123°12'0 0.0
2017-Jan-11 03:32N 49°17' W 123°12'0 0.0
2017-Jan-11 02:32N 49°17' W 123°12'0 0.1
2017-Jan-11 01:32N 49°17' W 123°12'0 0.0
2017-Jan-11 00:32N 49°17' W 123°12'0 0.0
2017-Jan-10 23:32N 49°17' W 123°12'0 0.0
2017-Jan-10 22:32N 49°17' W 123°12'0 0.0
2017-Jan-10 21:32N 49°17' W 123°12'0 0.0
2017-Jan-10 20:32N 49°17' W 123°12'0 0.0
2017-Jan-10 19:32N 49°17' W 123°12'0 0.0
2017-Jan-10 18:32N 49°17' W 123°12'0 0.0
2017-Jan-10 17:32N 49°17' W 123°12'0 0.0
2017-Jan-10 16:32N 49°17' W 123°12'0 0.0
2017-Jan-10 15:32N 49°17' W 123°12'0 0.0
2017-Jan-10 14:32N 49°17' W 123°12'0 0.0
2017-Jan-10 13:32N 49°17' W 123°12'0 0.0
2017-Jan-10 12:32N 49°17' W 123°12'0 0.0
2017-Jan-10 11:32N 49°17' W 123°12'0 0.0
2017-Jan-10 10:32N 49°17' W 123°12'0 0.0
2017-Jan-10 09:32N 49°17' W 123°12'0 0.0
2017-Jan-10 08:32N 49°17' W 123°12'0 0.0
2017-Jan-10 07:32N 49°17' W 123°12'0 0.0
2017-Jan-10 06:32N 49°17' W 123°12'0 0.0
2017-Jan-10 05:32N 49°17' W 123°12'0 0.0
2017-Jan-10 04:29N 49°17' W 123°12'0 0.0
2017-Jan-10 03:32N 49°17' W 123°12'0 0.0
2017-Jan-10 02:32N 49°17' W 123°12'0 0.0
2017-Jan-10 01:32N 49°17' W 123°12'0 0.0
2017-Jan-10 00:32N 49°17' W 123°12'0 0.0
2017-Jan-09 23:32N 49°17' W 123°12'0 0.0
2017-Jan-09 22:32N 49°17' W 123°12'0 0.0
2017-Jan-09 21:32N 49°17' W 123°12'0 0.1
2017-Jan-09 20:32N 49°17' W 123°12'0 0.0
2017-Jan-09 19:32N 49°17' W 123°12'0 0.0
2017-Jan-09 18:32N 49°17' W 123°12'0 0.0
2017-Jan-09 17:32N 49°17' W 123°12'0 0.0
2017-Jan-09 16:32N 49°17' W 123°12'0 0.0
2017-Jan-09 15:32N 49°17' W 123°12'0 0.0
2017-Jan-09 14:32N 49°17' W 123°12'0 0.0
2017-Jan-09 13:32N 49°17' W 123°12'0 0.0
2017-Jan-09 12:32N 49°17' W 123°12'0 0.1
2017-Jan-09 11:32N 49°17' W 123°12'0 0.0
2017-Jan-09 10:32N 49°17' W 123°12'0 0.0
2017-Jan-09 09:32N 49°17' W 123°12'0 0.0
2017-Jan-09 08:32N 49°17' W 123°12'0 0.0
2017-Jan-09 07:32N 49°17' W 123°12'0 0.1
2017-Jan-09 06:32N 49°17' W 123°12'0 0.0
2017-Jan-09 05:32N 49°17' W 123°12'0 0.0
2017-Jan-09 04:33N 49°17' W 123°12'0 0.0
2017-Jan-09 03:33N 49°17' W 123°12'0 0.0
2017-Jan-09 02:34N 49°17' W 123°12'0 0.0
2017-Jan-09 01:34N 49°17' W 123°12'0 0.0
2017-Jan-09 00:33N 49°17' W 123°12'0 0.0
2017-Jan-08 23:34N 49°17' W 123°12'0 0.0
2017-Jan-08 22:34N 49°17' W 123°12'0 0.1
2017-Jan-08 21:33N 49°17' W 123°12'4 4.2
2017-Jan-08 20:34N 49°17' W 123°18'1515.3
2017-Jan-08 19:34N 49°01' W 123°16'1717.3
2017-Jan-08 18:33N 48°47' W 123°01'1414.1
2017-Jan-08 17:34N 48°36' W 123°13'1414.0
2017-Jan-08 16:34N 48°22' W 123°17'1010.3
2017-Jan-08 15:33N 48°15' W 123°28'1313.4
2017-Jan-08 14:33N 48°14' W 123°48'1313.0
2017-Jan-08 13:33N 48°17' W 124°07'1312.7
2017-Jan-08 12:33N 48°23' W 124°24'1212.2
2017-Jan-08 11:33N 48°28' W 124°41'1110.9
2017-Jan-08 10:33N 48°29' W 124°57'1110.6
2017-Jan-08 09:33N 48°29' W 125°13'1110.6
2017-Jan-08 08:31N 48°30' W 125°29'1010.9
2017-Jan-08 07:33N 48°32' W 125°45'  

Dump ship's entire track history